createdAt,value
2023-02-19T00:00:49.395Z,99174.81
2023-02-19T00:02:53.117Z,99174.22
2023-02-19T00:04:56.272Z,99178.94
2023-02-19T00:06:59.232Z,99177.72
2023-02-19T00:09:02.713Z,99179.94
2023-02-19T00:11:07.821Z,99172.97
2023-02-19T00:13:10.996Z,99182.63
2023-02-19T00:15:15.490Z,99182.63
2023-02-19T00:17:18.391Z,99179.78
2023-02-19T00:19:21.918Z,99184.91
2023-02-19T00:21:25.949Z,99179.16
2023-02-19T00:23:28.995Z,99185.50
2023-02-19T00:25:32.271Z,99183.25
2023-02-19T00:27:35.393Z,99190.03
2023-02-19T00:29:38.323Z,99193.72
2023-02-19T00:31:42.968Z,99192.06
2023-02-19T00:33:46.478Z,99192.28
2023-02-19T00:35:49.442Z,99199.25
2023-02-19T00:37:52.273Z,99195.75
2023-02-19T00:39:55.234Z,99189.78
2023-02-19T00:41:58.115Z,99201.31
2023-02-19T00:44:02.923Z,99191.84
2023-02-19T00:46:05.982Z,99192.69
2023-02-19T00:48:11.074Z,99186.72
2023-02-19T00:50:14.640Z,99194.72
2023-02-19T00:52:17.676Z,99190.00
2023-02-19T00:54:22.854Z,99203.78
2023-02-19T00:56:25.875Z,99197.19
2023-02-19T00:58:29.346Z,99196.34
2023-02-19T01:00:33.895Z,99192.66
2023-02-19T01:02:36.794Z,99189.19
2023-02-19T01:04:41.335Z,99195.31
2023-02-19T01:06:44.234Z,99192.06
2023-02-19T01:08:47.561Z,99193.47
2023-02-19T01:10:50.351Z,99188.34
2023-02-19T01:12:53.293Z,99184.03
2023-02-19T01:14:56.232Z,99176.03
2023-02-19T01:16:59.510Z,99170.69
2023-02-19T01:19:02.550Z,99171.91
2023-02-19T01:21:09.580Z,99172.75
2023-02-19T01:23:14.359Z,99157.34
2023-02-19T01:25:17.499Z,99163.50
2023-02-19T01:27:20.589Z,99155.28
2023-02-19T01:29:23.549Z,99155.72
2023-02-19T01:31:27.487Z,99154.47
2023-02-19T01:33:31.069Z,99153.03
2023-02-19T01:35:34.079Z,99152.59
2023-02-19T01:37:38.833Z,99155.03
2023-02-19T01:39:41.793Z,99155.69
2023-02-19T01:41:44.782Z,99151.38
2023-02-19T01:44:00.432Z,99152.00
2023-02-19T01:46:04.752Z,99151.53
2023-02-19T01:48:12.236Z,99148.06
2023-02-19T01:50:15.432Z,99149.91
2023-02-19T01:52:24.015Z,99157.31
2023-02-19T01:54:31.901Z,99146.59
2023-02-19T01:56:38.636Z,99149.50
2023-02-19T01:58:42.273Z,99149.28
2023-02-19T02:00:45.513Z,99134.69
2023-02-19T02:02:53.245Z,99141.06
2023-02-19T02:04:58.872Z,99136.34
2023-02-19T02:07:24.195Z,99133.47
2023-02-19T02:09:49.039Z,99130.16
2023-02-19T02:11:53.052Z,99130.38
2023-02-19T02:13:57.394Z,99127.50
2023-02-19T02:16:09.198Z,99125.66
2023-02-19T02:18:20.996Z,99124.00
2023-02-19T02:20:36.011Z,99117.44
2023-02-19T02:22:46.031Z,99109.88
2023-02-19T02:25:21.994Z,99103.47
2023-02-19T02:27:39.321Z,99090.56
2023-02-19T02:30:20.193Z,99087.91
2023-02-19T02:32:27.476Z,99088.69
2023-02-19T02:34:35.736Z,99093.22
2023-02-19T02:36:42.359Z,99084.19
2023-02-19T02:38:49.796Z,99086.81
2023-02-19T02:40:57.444Z,99083.78
2023-02-19T02:43:01.488Z,99081.09
2023-02-19T02:45:37.174Z,99075.16
2023-02-19T02:47:51.366Z,99068.59
2023-02-19T02:50:05.411Z,99074.72
2023-02-19T02:52:29.615Z,99070.03
2023-02-19T02:54:53.506Z,99068.78
2023-02-19T02:56:59.766Z,99074.31
2023-02-19T02:59:09.246Z,99062.44
2023-02-19T03:01:37.274Z,99052.97
2023-02-19T03:03:44.435Z,99054.41
2023-02-19T03:05:53.299Z,99062.22
2023-02-19T03:08:04.548Z,99062.63
2023-02-19T03:10:13.954Z,99066.94
2023-02-19T03:12:37.914Z,99064.69
2023-02-19T03:15:05.315Z,99065.31
2023-02-19T03:17:33.034Z,99077.59
2023-02-19T03:19:43.473Z,99086.44
2023-02-19T03:21:51.041Z,99077.41
2023-02-19T03:24:14.753Z,99082.31
2023-02-19T03:26:19.852Z,99066.09
2023-02-19T03:28:49.323Z,99077.59
2023-02-19T03:30:55.982Z,99066.94
2023-02-19T03:33:02.914Z,99062.00
2023-02-19T03:35:12.032Z,99058.94
2023-02-19T03:37:19.711Z,99059.75
2023-02-19T03:39:24.153Z,99063.25
2023-02-19T03:41:35.073Z,99058.94
2023-02-19T03:43:43.129Z,99062.44
2023-02-19T03:45:54.226Z,99057.28
2023-02-19T03:48:13.631Z,99042.31
2023-02-19T03:50:21.990Z,99037.59
2023-02-19T03:52:35.624Z,99029.34
2023-02-19T03:54:45.073Z,99027.31
2023-02-19T03:56:53.347Z,99030.41
2023-02-19T03:59:02.636Z,99029.56
2023-02-19T04:01:09.907Z,99032.03
2023-02-19T04:03:18.716Z,99029.34
2023-02-19T04:05:27.445Z,99017.47
2023-02-19T04:07:33.140Z,99012.34
2023-02-19T04:09:40.196Z,99013.56
2023-02-19T04:11:48.918Z,99016.22
2023-02-19T04:13:57.217Z,99016.44
2023-02-19T04:16:07.349Z,99021.16
2023-02-19T04:18:14.877Z,99016.66
2023-02-19T04:20:19.280Z,99016.25
2023-02-19T04:22:24.319Z,99021.16
2023-02-19T04:24:31.569Z,99017.28
2023-02-19T04:26:35.959Z,99007.00
2023-02-19T04:28:40.388Z,99003.09
2023-02-19T04:30:44.067Z,99001.25
2023-02-19T04:32:47.020Z,98987.50
2023-02-19T04:34:49.997Z,98980.72
2023-02-19T04:36:52.852Z,98976.00
2023-02-19T04:38:57.316Z,98969.03
2023-02-19T04:41:00.282Z,98959.56
2023-02-19T04:43:03.193Z,98962.25
2023-02-19T04:45:06.674Z,98963.91
2023-02-19T04:47:09.711Z,98961.41
2023-02-19T04:49:12.621Z,98968.81
2023-02-19T04:51:15.674Z,98958.97
2023-02-19T04:53:18.600Z,98952.59
2023-02-19T04:55:23.055Z,98936.59
2023-02-19T04:57:25.914Z,98943.34
2023-02-19T04:59:28.914Z,98949.72
2023-02-19T05:01:31.851Z,98962.66
2023-02-19T05:03:37.630Z,98966.16
2023-02-19T05:05:40.771Z,98974.97
2023-02-19T05:07:43.721Z,98981.75
2023-02-19T05:09:46.514Z,98987.09
2023-02-19T05:11:50.914Z,98979.69
2023-02-19T05:13:56.510Z,98968.19
2023-02-19T05:16:01.502Z,98946.66
2023-02-19T05:18:04.818Z,98953.84
2023-02-19T05:20:09.191Z,98953.00
2023-02-19T05:22:12.070Z,98958.13
2023-02-19T05:24:15.020Z,98965.53
2023-02-19T05:26:20.780Z,98964.69
2023-02-19T05:28:31.434Z,98973.31
2023-02-19T05:30:35.701Z,98962.84
2023-02-19T05:32:39.350Z,98951.34
2023-02-19T05:34:42.277Z,98939.66
2023-02-19T05:36:45.517Z,98945.22
2023-02-19T05:38:48.711Z,98950.13
2023-02-19T05:40:51.949Z,98957.94
2023-02-19T05:42:54.845Z,98947.91
2023-02-19T05:44:59.390Z,98954.63
2023-02-19T05:47:02.356Z,98952.19
2023-02-19T05:49:05.275Z,98947.28
2023-02-19T05:51:11.036Z,98940.06
2023-02-19T05:53:14.511Z,98937.84
2023-02-19T05:55:17.671Z,98936.78
2023-02-19T05:57:21.917Z,98940.50
2023-02-19T05:59:26.404Z,98943.34
2023-02-19T06:01:31.391Z,98944.19
2023-02-19T06:03:34.267Z,98942.13
2023-02-19T06:05:38.192Z,98930.63
2023-02-19T06:07:42.150Z,98935.97
2023-02-19T06:09:45.157Z,98933.72
2023-02-19T06:11:48.030Z,98935.78
2023-02-19T06:13:51.154Z,98936.19
2023-02-19T06:15:54.188Z,98932.47
2023-02-19T06:17:58.803Z,98933.28
2023-02-19T06:20:01.993Z,98925.91
2023-02-19T06:22:05.017Z,98931.25
2023-02-19T06:24:09.714Z,98931.84
2023-02-19T06:26:15.638Z,98931.47
2023-02-19T06:28:18.552Z,98928.78
2023-02-19T06:30:21.538Z,98930.41
2023-02-19T06:32:24.972Z,98922.41
2023-02-19T06:34:29.614Z,98917.06
2023-02-19T06:36:32.512Z,98916.06
2023-02-19T06:38:35.437Z,98924.84
2023-02-19T06:40:38.315Z,98909.88
2023-02-19T06:42:41.436Z,98920.34
2023-02-19T06:44:44.477Z,98919.94
2023-02-19T06:46:47.467Z,98925.28
2023-02-19T06:48:50.565Z,98925.06
2023-02-19T06:50:55.728Z,98932.88
2023-02-19T06:52:58.536Z,98928.97
2023-02-19T06:55:01.592Z,98933.91
2023-02-19T06:57:04.673Z,98933.69
2023-02-19T06:59:10.618Z,98925.28
2023-02-19T07:01:13.806Z,98922.63
2023-02-19T07:03:16.833Z,98932.47
2023-02-19T07:05:19.755Z,98924.06
2023-02-19T07:07:24.240Z,98920.34
2023-02-19T07:09:28.843Z,98927.13
2023-02-19T07:11:34.314Z,98923.63
2023-02-19T07:13:37.351Z,98922.41
2023-02-19T07:15:40.316Z,98924.03
2023-02-19T07:17:43.311Z,98924.03
2023-02-19T07:19:46.451Z,98917.66
2023-02-19T07:21:49.295Z,98913.94
2023-02-19T07:23:54.123Z,98915.59
2023-02-19T07:25:57.691Z,98910.88
2023-02-19T07:28:00.830Z,98908.22
2023-02-19T07:30:04.434Z,98909.00
2023-02-19T07:32:07.828Z,98903.25
2023-02-19T07:34:10.830Z,98903.66
2023-02-19T07:36:14.850Z,98894.19
2023-02-19T07:38:18.673Z,98896.44
2023-02-19T07:40:23.153Z,98893.75
2023-02-19T07:42:25.953Z,98899.06
2023-02-19T07:44:29.008Z,98897.78
2023-02-19T07:46:32.483Z,98896.94
2023-02-19T07:48:35.701Z,98901.22
2023-02-19T07:50:38.995Z,98898.69
2023-02-19T07:52:41.997Z,98898.28
2023-02-19T07:54:44.916Z,98902.59
2023-02-19T07:56:49.475Z,98902.81
2023-02-19T07:58:52.475Z,98904.47
2023-02-19T08:00:55.650Z,98903.63
2023-02-19T08:03:01.637Z,98907.53
2023-02-19T08:05:06.098Z,98908.16
2023-02-19T08:07:08.956Z,98904.72
2023-02-19T08:09:12.323Z,98908.97
2023-02-19T08:11:33.880Z,98910.06
2023-02-19T08:13:38.583Z,98911.28
2023-02-19T08:15:41.535Z,98914.16
2023-02-19T08:17:44.475Z,98918.91
2023-02-19T08:19:47.316Z,98932.44
2023-02-19T08:21:51.051Z,98933.28
2023-02-19T08:23:53.913Z,98925.88
2023-02-19T08:25:59.009Z,98929.78
2023-02-19T08:28:02.239Z,98934.50
2023-02-19T08:30:09.301Z,98926.72
2023-02-19T08:32:12.271Z,98927.75
2023-02-19T08:34:15.353Z,98935.97
2023-02-19T08:36:18.368Z,98937.84
2023-02-19T08:38:21.474Z,98935.16
2023-02-19T08:40:24.677Z,98941.75
2023-02-19T08:42:29.916Z,98940.53
2023-02-19T08:44:33.609Z,98936.63
2023-02-19T08:46:38.474Z,98936.41
2023-02-19T08:48:42.034Z,98939.09
2023-02-19T08:50:44.953Z,98945.28
2023-02-19T08:52:47.832Z,98948.16
2023-02-19T08:54:50.750Z,98958.00
2023-02-19T08:56:53.910Z,98955.16
2023-02-19T08:58:56.991Z,98960.28
2023-02-19T09:01:00.003Z,98956.22
2023-02-19T09:03:04.619Z,98961.75
2023-02-19T09:05:07.925Z,98965.47
2023-02-19T09:07:12.741Z,98960.97
2023-02-19T09:09:15.590Z,98965.25
2023-02-19T09:11:18.611Z,98967.53
2023-02-19T09:13:21.447Z,98969.38
2023-02-19T09:15:24.429Z,98970.19
2023-02-19T09:17:28.080Z,98974.72
2023-02-19T09:19:33.032Z,98983.34
2023-02-19T09:21:35.911Z,98982.31
2023-02-19T09:23:38.914Z,98974.94
2023-02-19T09:25:41.793Z,98987.06
2023-02-19T09:27:44.834Z,98983.78
2023-02-19T09:29:47.953Z,98981.31
2023-02-19T09:31:50.929Z,98982.75
2023-02-19T09:33:53.943Z,98987.91
2023-02-19T09:36:01.555Z,98990.97
2023-02-19T09:38:04.476Z,98989.72
2023-02-19T09:40:08.318Z,98995.69
2023-02-19T09:42:15.890Z,98996.72
2023-02-19T09:44:27.996Z,99013.97
2023-02-19T09:46:34.356Z,99011.72
2023-02-19T09:48:37.454Z,99016.25
2023-02-19T09:50:44.618Z,99032.88
2023-02-19T09:52:53.104Z,99049.50
2023-02-19T09:54:59.813Z,99051.75
2023-02-19T09:57:04.101Z,99065.47
2023-02-19T09:59:11.992Z,99063.63
2023-02-19T10:01:15.751Z,99058.91
2023-02-19T10:03:25.991Z,99073.66
2023-02-19T10:05:29.590Z,99066.44
2023-02-19T10:07:39.717Z,99069.72
2023-02-19T10:09:48.909Z,99073.44
2023-02-19T10:11:54.383Z,99080.41
2023-02-19T10:14:09.564Z,99084.47
2023-02-19T10:16:17.849Z,99087.34
2023-02-19T10:18:23.522Z,99089.59
2023-02-19T10:20:28.182Z,99091.66
2023-02-19T10:22:33.009Z,99084.13
2023-02-19T10:24:38.317Z,99085.56
2023-02-19T10:26:43.190Z,99092.97
2023-02-19T10:28:46.172Z,99093.56
2023-02-19T10:30:54.098Z,99096.47
2023-02-19T10:33:03.115Z,99097.72
2023-02-19T10:35:12.073Z,99109.38
2023-02-19T10:37:18.405Z,99114.94
2023-02-19T10:39:42.392Z,99122.75
2023-02-19T10:41:46.791Z,99121.50
2023-02-19T10:43:54.772Z,99126.63
2023-02-19T10:45:59.111Z,99133.03
2023-02-19T10:48:03.322Z,99131.75
2023-02-19T10:50:09.244Z,99130.69
2023-02-19T10:52:18.102Z,99127.47
2023-02-19T10:54:25.893Z,99137.75
2023-02-19T10:56:31.752Z,99131.97
2023-02-19T10:58:38.111Z,99144.69
2023-02-19T11:00:41.274Z,99148.53
2023-02-19T11:02:45.097Z,99151.69
2023-02-19T11:05:05.556Z,99159.66
2023-02-19T11:07:10.752Z,99155.94
2023-02-19T11:09:26.595Z,99163.53
2023-02-19T11:11:34.170Z,99164.34
2023-02-19T11:13:40.069Z,99166.03
2023-02-19T11:15:44.630Z,99176.06
2023-02-19T11:17:55.385Z,99184.22
2023-02-19T11:20:00.798Z,99184.03
2023-02-19T11:22:19.271Z,99195.59
2023-02-19T11:24:34.436Z,99197.72
2023-02-19T11:26:38.592Z,99199.81
2023-02-19T11:28:44.592Z,99200.66
2023-02-19T11:30:48.686Z,99213.69
2023-02-19T11:32:51.581Z,99219.44
2023-02-19T11:35:15.073Z,99216.63
2023-02-19T11:37:21.252Z,99222.38
2023-02-19T11:39:31.358Z,99218.03
2023-02-19T11:41:56.953Z,99232.66
2023-02-19T11:44:17.074Z,99237.09
2023-02-19T11:46:28.111Z,99233.81
2023-02-19T11:48:42.564Z,99239.53
2023-02-19T11:50:59.555Z,99240.47
2023-02-19T11:53:17.152Z,99240.00
2023-02-19T11:55:32.152Z,99242.00
2023-02-19T11:57:42.493Z,99235.66
2023-02-19T11:59:54.791Z,99243.38
2023-02-19T12:02:15.530Z,99245.19
2023-02-19T12:05:08.518Z,99252.03
2023-02-19T12:07:23.810Z,99248.59
2023-02-19T12:09:37.470Z,99253.81
2023-02-19T12:12:00.512Z,99258.25
2023-02-19T12:14:20.957Z,99266.16
2023-02-19T12:16:32.068Z,99265.81
2023-02-19T12:19:02.588Z,99266.88
2023-02-19T12:21:20.604Z,99268.88
2023-02-19T12:24:04.848Z,99277.13
2023-02-19T12:26:20.708Z,99283.28
2023-02-19T12:28:56.547Z,99289.25
2023-02-19T12:31:19.885Z,99295.84
2023-02-19T12:33:54.040Z,99297.88
2023-02-19T12:36:06.359Z,99297.69
2023-02-19T12:38:22.686Z,99290.72
2023-02-19T12:40:38.350Z,99295.13
2023-02-19T12:42:52.406Z,99290.84
2023-02-19T12:45:00.673Z,99290.28
2023-02-19T12:47:07.321Z,99291.72
2023-02-19T12:49:15.711Z,99296.72
2023-02-19T12:51:24.393Z,99293.31
2023-02-19T12:53:40.072Z,99298.16
2023-02-19T12:55:46.353Z,99302.84
2023-02-19T12:57:51.635Z,99304.53
2023-02-19T13:00:00.596Z,99311.91
2023-02-19T13:02:12.617Z,99318.66
2023-02-19T13:04:26.483Z,99327.88
2023-02-19T13:06:36.856Z,99329.59
2023-02-19T13:08:57.871Z,99339.09
2023-02-19T13:11:15.606Z,99344.81
2023-02-19T13:13:24.801Z,99340.94
2023-02-19T13:15:34.750Z,99340.78
2023-02-19T13:17:43.077Z,99352.50
2023-02-19T13:19:50.760Z,99350.59
2023-02-19T13:22:21.998Z,99356.34
2023-02-19T13:24:28.358Z,99348.16
2023-02-19T13:26:46.157Z,99363.19
2023-02-19T13:29:07.199Z,99367.72
2023-02-19T13:31:25.416Z,99362.56
2023-02-19T13:33:40.436Z,99360.69
2023-02-19T13:36:13.396Z,99365.22
2023-02-19T13:38:17.098Z,99360.97
2023-02-19T13:40:31.415Z,99372.97
2023-02-19T13:42:36.565Z,99371.00
2023-02-19T13:44:42.156Z,99373.06
2023-02-19T13:46:47.915Z,99370.38
2023-02-19T13:49:10.320Z,99382.13
2023-02-19T13:51:51.463Z,99383.53
2023-02-19T13:54:00.113Z,99385.75
2023-02-19T13:56:03.240Z,99396.00
2023-02-19T13:58:51.834Z,99393.63
2023-02-19T14:00:55.414Z,99400.25
2023-02-19T14:03:28.694Z,99398.00
2023-02-19T14:06:00.474Z,99409.25
2023-02-19T14:08:05.035Z,99414.19
2023-02-19T14:10:13.192Z,99429.66
2023-02-19T14:12:20.800Z,99423.44
2023-02-19T14:14:29.164Z,99431.69
2023-02-19T14:16:57.032Z,99433.44
2023-02-19T14:19:00.110Z,99428.22
2023-02-19T14:21:07.837Z,99420.03
2023-02-19T14:23:17.480Z,99432.81
2023-02-19T14:25:30.190Z,99426.75
2023-02-19T14:27:33.153Z,99437.22
2023-02-19T14:29:36.047Z,99439.50
2023-02-19T14:31:39.389Z,99445.38
2023-02-19T14:33:47.152Z,99431.97
2023-02-19T14:35:53.921Z,99436.91
2023-02-19T14:37:57.766Z,99438.50
2023-02-19T14:40:03.228Z,99444.16
2023-02-19T14:42:08.874Z,99443.38
2023-02-19T14:44:15.636Z,99445.47
2023-02-19T14:46:22.675Z,99448.84
2023-02-19T14:48:29.830Z,99447.75
2023-02-19T14:50:33.590Z,99451.06
2023-02-19T14:52:41.302Z,99455.66
2023-02-19T14:54:49.390Z,99468.78
2023-02-19T14:56:54.846Z,99465.75
2023-02-19T14:59:08.109Z,99466.69
2023-02-19T15:01:26.566Z,99467.41
2023-02-19T15:03:34.721Z,99467.88
2023-02-19T15:05:38.112Z,99476.22
2023-02-19T15:07:42.559Z,99474.56
2023-02-19T15:09:49.470Z,99467.41
2023-02-19T15:11:55.351Z,99475.66
2023-02-19T15:14:01.337Z,99477.22
2023-02-19T15:16:05.275Z,99485.56
2023-02-19T15:18:08.431Z,99487.69
2023-02-19T15:20:17.402Z,99490.06
2023-02-19T15:22:22.750Z,99497.78
2023-02-19T15:24:25.895Z,99501.19
2023-02-19T15:26:35.004Z,99503.47
2023-02-19T15:28:39.555Z,99513.66
2023-02-19T15:30:42.434Z,99512.19
2023-02-19T15:32:52.785Z,99527.25
2023-02-19T15:34:57.114Z,99523.63
2023-02-19T15:37:03.012Z,99525.97
2023-02-19T15:39:06.195Z,99536.28
2023-02-19T15:41:20.144Z,99536.00
2023-02-19T15:43:28.122Z,99542.91
2023-02-19T15:45:40.226Z,99554.22
2023-02-19T15:47:49.512Z,99558.63
2023-02-19T15:49:57.801Z,99555.22
2023-02-19T15:52:06.095Z,99566.22
2023-02-19T15:54:18.753Z,99554.81
2023-02-19T15:56:29.743Z,99565.41
2023-02-19T15:58:38.553Z,99562.84
2023-02-19T16:00:48.475Z,99563.44
2023-02-19T16:02:51.420Z,99574.84
2023-02-19T16:04:54.323Z,99579.66
2023-02-19T16:06:58.882Z,99579.81
2023-02-19T16:09:06.042Z,99579.97
2023-02-19T16:11:30.159Z,99579.94
2023-02-19T16:13:35.402Z,99586.59
2023-02-19T16:15:40.312Z,99586.91
2023-02-19T16:17:45.774Z,99600.38
2023-02-19T16:19:54.843Z,99591.69
2023-02-19T16:21:59.113Z,99607.59
2023-02-19T16:24:11.732Z,99613.91
2023-02-19T16:26:14.972Z,99612.44
2023-02-19T16:28:24.388Z,99617.13
2023-02-19T16:30:30.546Z,99621.00
2023-02-19T16:32:33.648Z,99623.97
2023-02-19T16:34:42.808Z,99632.47
2023-02-19T16:36:48.675Z,99642.78
2023-02-19T16:39:17.464Z,99647.28
2023-02-19T16:41:20.688Z,99645.38
2023-02-19T16:43:38.219Z,99653.66
2023-02-19T16:45:42.229Z,99660.81
2023-02-19T16:47:48.661Z,99664.63
2023-02-19T16:49:53.437Z,99675.47
2023-02-19T16:51:56.755Z,99678.97
2023-02-19T16:53:59.681Z,99679.38
2023-02-19T16:56:02.778Z,99687.16
2023-02-19T16:58:05.617Z,99684.63
2023-02-19T17:00:09.438Z,99691.63
2023-02-19T17:02:19.676Z,99694.81
2023-02-19T17:04:22.644Z,99702.31
2023-02-19T17:06:27.536Z,99713.28
2023-02-19T17:08:34.406Z,99708.88
2023-02-19T17:10:37.275Z,99707.22
2023-02-19T17:12:40.055Z,99710.03
2023-02-19T17:14:43.198Z,99716.19
2023-02-19T17:16:46.295Z,99724.66
2023-02-19T17:18:49.486Z,99725.50
2023-02-19T17:20:57.583Z,99730.28
2023-02-19T17:23:02.111Z,99734.63
2023-02-19T17:25:05.574Z,99736.13
2023-02-19T17:27:11.673Z,99740.59
2023-02-19T17:29:15.761Z,99744.56
2023-02-19T17:31:19.012Z,99754.00
2023-02-19T17:33:21.952Z,99752.69
2023-02-19T17:35:25.502Z,99758.47
2023-02-19T17:37:28.353Z,99763.97
2023-02-19T17:39:32.841Z,99759.28
2023-02-19T17:41:35.964Z,99765.59
2023-02-19T17:43:38.754Z,99767.59
2023-02-19T17:45:41.648Z,99768.22
2023-02-19T17:47:44.511Z,99767.09
2023-02-19T17:49:47.308Z,99783.34
2023-02-19T17:51:50.118Z,99782.34
2023-02-19T17:53:53.055Z,99793.06
2023-02-19T17:55:57.351Z,99785.09
2023-02-19T17:58:00.789Z,99791.38
2023-02-19T18:00:04.842Z,99786.25
2023-02-19T18:02:15.280Z,99796.81
2023-02-19T18:04:18.198Z,99810.91
2023-02-19T18:06:21.172Z,99805.56
2023-02-19T18:08:24.071Z,99808.19
2023-02-19T18:10:27.586Z,99800.25
2023-02-19T18:12:32.074Z,99796.94
2023-02-19T18:14:34.855Z,99806.53
2023-02-19T18:16:37.832Z,99801.84
2023-02-19T18:18:41.704Z,99803.00
2023-02-19T18:20:44.713Z,99787.88
2023-02-19T18:22:47.603Z,99803.13
2023-02-19T18:24:52.966Z,99801.94
2023-02-19T18:26:55.870Z,99815.19
2023-02-19T18:29:00.451Z,99806.84
2023-02-19T18:31:03.540Z,99806.84
2023-02-19T18:33:06.952Z,99813.56
2023-02-19T18:35:10.271Z,99811.56
2023-02-19T18:37:13.112Z,99814.44
2023-02-19T18:39:16.431Z,99823.44
2023-02-19T18:41:21.270Z,99827.69
2023-02-19T18:43:24.512Z,99832.81
2023-02-19T18:45:29.952Z,99834.78
2023-02-19T18:47:33.032Z,99830.56
2023-02-19T18:49:35.989Z,99832.19
2023-02-19T18:51:38.803Z,99837.47
2023-02-19T18:53:43.037Z,99835.28
2023-02-19T18:55:45.812Z,99846.03
2023-02-19T18:57:49.609Z,99853.91
2023-02-19T18:59:52.565Z,99848.06
2023-02-19T19:01:57.202Z,99857.97
2023-02-19T19:04:00.676Z,99854.06
2023-02-19T19:06:03.836Z,99855.69
2023-02-19T19:08:06.673Z,99849.56
2023-02-19T19:10:10.435Z,99856.03
2023-02-19T19:12:13.274Z,99859.19
2023-02-19T19:14:16.168Z,99871.81
2023-02-19T19:16:19.038Z,99872.03
2023-02-19T19:18:23.577Z,99869.44
2023-02-19T19:20:26.583Z,99871.31
2023-02-19T19:22:29.481Z,99882.00
2023-02-19T19:24:32.421Z,99877.22
2023-02-19T19:26:35.751Z,99889.84
2023-02-19T19:28:44.728Z,99887.59
2023-02-19T19:30:47.704Z,99885.28
2023-02-19T19:32:51.871Z,99887.66
2023-02-19T19:34:58.088Z,99879.38
2023-02-19T19:37:01.199Z,99878.25
2023-02-19T19:39:04.723Z,99885.88
2023-02-19T19:41:07.957Z,99890.03
2023-02-19T19:43:10.996Z,99897.66
2023-02-19T19:45:14.836Z,99893.88
2023-02-19T19:47:18.040Z,99891.41
2023-02-19T19:49:22.639Z,99882.16
2023-02-19T19:51:31.678Z,99886.16
2023-02-19T19:53:34.599Z,99890.44
2023-02-19T19:55:37.716Z,99881.97
2023-02-19T19:57:40.983Z,99886.44
2023-02-19T19:59:44.074Z,99881.16
2023-02-19T20:01:52.583Z,99893.72
2023-02-19T20:03:55.759Z,99890.91
2023-02-19T20:05:58.875Z,99886.91
2023-02-19T20:08:03.490Z,99890.22
2023-02-19T20:10:07.330Z,99898.72
2023-02-19T20:12:11.231Z,99894.56
2023-02-19T20:14:14.795Z,99896.00
2023-02-19T20:16:23.435Z,99897.03
2023-02-19T20:18:26.954Z,99892.88
2023-02-19T20:20:30.914Z,99892.06
2023-02-19T20:22:33.914Z,99902.50
2023-02-19T20:24:38.485Z,99906.81
2023-02-19T20:26:41.455Z,99908.47
2023-02-19T20:28:46.794Z,99915.59
2023-02-19T20:30:50.143Z,99908.66
2023-02-19T20:32:53.922Z,99905.66
2023-02-19T20:34:56.834Z,99916.94
2023-02-19T20:37:00.001Z,99922.09
2023-02-19T20:39:02.915Z,99923.94
2023-02-19T20:41:07.474Z,99922.09
2023-02-19T20:43:10.393Z,99926.41
2023-02-19T20:45:17.028Z,99931.19
2023-02-19T20:47:19.843Z,99933.84
2023-02-19T20:49:25.633Z,99928.16
2023-02-19T20:51:28.599Z,99939.59
2023-02-19T20:53:32.360Z,99926.66
2023-02-19T20:55:35.474Z,99936.16
2023-02-19T20:57:40.095Z,99938.19
2023-02-19T20:59:44.432Z,99944.31
2023-02-19T21:01:47.521Z,99945.94
2023-02-19T21:03:50.433Z,99951.34
2023-02-19T21:05:53.336Z,99954.78
2023-02-19T21:07:56.164Z,99959.22
2023-02-19T21:09:59.193Z,99957.59
2023-02-19T21:12:02.158Z,99956.81
2023-02-19T21:14:06.675Z,99961.44
2023-02-19T21:16:10.285Z,99971.88
2023-02-19T21:18:13.676Z,99976.97
2023-02-19T21:20:20.434Z,99975.97
2023-02-19T21:22:23.674Z,99979.59
2023-02-19T21:24:26.746Z,99984.38
2023-02-19T21:26:35.355Z,99988.44
2023-02-19T21:28:38.834Z,99996.53
2023-02-19T21:30:43.326Z,99991.22
2023-02-19T21:32:46.269Z,99980.50
2023-02-19T21:34:49.358Z,99984.56
2023-02-19T21:36:52.520Z,99986.53
2023-02-19T21:38:55.477Z,99992.97
2023-02-19T21:40:58.474Z,99997.44
2023-02-19T21:43:02.114Z,99992.56
2023-02-19T21:45:05.706Z,99999.16
2023-02-19T21:47:11.717Z,99996.34
2023-02-19T21:49:14.529Z,100003.75
2023-02-19T21:51:18.358Z,100006.41
2023-02-19T21:53:21.353Z,100003.06
2023-02-19T21:55:24.316Z,100005.88
2023-02-19T21:57:27.324Z,100000.88
2023-02-19T21:59:30.288Z,100011.75
2023-02-19T22:01:35.711Z,100011.22
2023-02-19T22:03:40.131Z,100007.19
2023-02-19T22:05:43.230Z,100007.50
2023-02-19T22:07:47.914Z,100008.63
2023-02-19T22:09:51.593Z,100023.28
2023-02-19T22:11:54.432Z,100018.94
2023-02-19T22:13:57.289Z,100023.53
2023-02-19T22:16:00.316Z,100025.81
2023-02-19T22:18:03.535Z,100027.91
2023-02-19T22:20:08.910Z,100025.53
2023-02-19T22:22:11.807Z,100025.84
2023-02-19T22:24:17.910Z,100032.56
2023-02-19T22:26:22.752Z,100035.47
2023-02-19T22:28:25.729Z,100041.75
2023-02-19T22:30:28.672Z,100038.69
2023-02-19T22:32:32.023Z,100037.19
2023-02-19T22:34:39.671Z,100037.59
2023-02-19T22:36:44.725Z,100031.47
2023-02-19T22:38:48.082Z,100043.84
2023-02-19T22:40:51.029Z,100037.22
2023-02-19T22:42:53.949Z,100044.44
2023-02-19T22:44:56.949Z,100048.91
2023-02-19T22:47:00.218Z,100057.94
2023-02-19T22:49:05.036Z,100066.00
2023-02-19T22:51:13.379Z,100064.31
2023-02-19T22:53:17.784Z,100065.31
2023-02-19T22:55:20.809Z,100065.47
2023-02-19T22:57:23.749Z,100066.16
2023-02-19T22:59:26.670Z,100066.16
2023-02-19T23:01:29.644Z,100074.09
2023-02-19T23:03:32.634Z,100065.47
2023-02-19T23:05:35.673Z,100069.75
2023-02-19T23:07:38.672Z,100076.72
2023-02-19T23:09:43.294Z,100072.56
2023-02-19T23:11:46.596Z,100082.97
2023-02-19T23:13:49.797Z,100071.28
2023-02-19T23:15:52.716Z,100077.53
2023-02-19T23:17:55.726Z,100076.59
2023-02-19T23:19:58.528Z,100082.41
2023-02-19T23:22:01.596Z,100078.66
2023-02-19T23:24:05.956Z,100077.56
2023-02-19T23:26:11.225Z,100080.31
2023-02-19T23:28:14.390Z,100082.53
2023-02-19T23:30:18.097Z,100085.88
2023-02-19T23:32:21.437Z,100083.25
2023-02-19T23:34:24.844Z,100076.84
2023-02-19T23:36:27.715Z,100077.53
2023-02-19T23:38:30.721Z,100069.59
2023-02-19T23:40:33.595Z,100068.47
2023-02-19T23:42:38.116Z,100068.47
2023-02-19T23:44:41.003Z,100058.88
2023-02-19T23:46:44.075Z,100065.97
2023-02-19T23:48:47.024Z,100069.44
2023-02-19T23:50:50.151Z,100058.19
2023-02-19T23:52:52.929Z,100061.22
2023-02-19T23:54:56.954Z,100053.13
2023-02-19T23:56:59.957Z,100052.88
2023-02-19T23:59:04.716Z,100045.91
